Time;durP1;ratioP1;P1;durP2;ratioP2;P2;SDS_P1;SDS_P2;PMS_P1;PMS_P2;Temp;Humidity;BMP_temperature;BMP_pressure;BME280_temperature;BME280_humidity;BME280_pressure;Samples;Min_cycle;Max_cycle;Signal;HPM_P1;HPM_P2
2021/09/02 00:02:03;;;;;;;25.48;13.32;;;;;;;12.50;85.33;97746.33;1832964;77;25686;-81
2021/09/02 00:04:31;;;;;;;20.37;13.75;;;;;;;12.52;85.35;97744.77;1837876;77;25840;-81
2021/09/02 00:06:58;;;;;;;18.40;12.82;;;;;;;12.51;85.37;97743.94;1829549;77;25723;-82
2021/09/02 00:09:26;;;;;;;18.02;11.97;;;;;;;12.51;85.43;97739.88;1816453;76;25684;-81
2021/09/02 00:11:53;;;;;;;18.42;12.88;;;;;;;12.51;85.46;97737.16;1826349;77;27488;-81
2021/09/02 00:14:19;;;;;;;18.87;12.47;;;;;;;12.49;85.38;97739.25;1849793;77;25892;-81
2021/09/02 00:16:48;;;;;;;17.55;13.00;;;;;;;12.47;85.37;97734.57;1849856;76;25730;-81
2021/09/02 00:19:14;;;;;;;18.77;13.00;;;;;;;12.44;85.38;97737.70;1824954;75;25713;-81
2021/09/02 00:21:41;;;;;;;21.17;13.38;;;;;;;12.42;85.35;97738.46;1841975;77;25742;-81
2021/09/02 00:24:07;;;;;;;18.77;13.08;;;;;;;12.43;85.37;97742.00;1847749;76;28202;-81
2021/09/02 00:26:34;;;;;;;20.10;12.50;;;;;;;12.45;85.47;97739.36;1842930;77;25786;-81
2021/09/02 00:29:01;;;;;;;17.48;13.55;;;;;;;12.44;85.34;97739.05;1849564;77;26319;-81
2021/09/02 00:31:27;;;;;;;15.70;12.93;;;;;;;12.42;85.33;97745.23;1849683;77;25676;-82
2021/09/02 00:33:54;;;;;;;17.27;12.37;;;;;;;12.41;85.32;97741.38;1849340;77;25675;-82
2021/09/02 00:36:20;;;;;;;17.50;12.68;;;;;;;12.41;85.34;97742.21;1848730;76;28292;-82
2021/09/02 00:38:47;;;;;;;14.83;10.95;;;;;;;12.41;85.33;97743.56;1820356;77;25665;-82
2021/09/02 00:41:13;;;;;;;19.10;12.75;;;;;;;12.35;85.23;97740.87;1843716;76;25734;-82
2021/09/02 00:43:42;;;;;;;18.25;12.13;;;;;;;12.32;85.30;97738.06;1849546;77;25699;-82
2021/09/02 00:46:10;;;;;;;19.87;12.55;;;;;;;12.33;85.39;97739.73;1839922;76;25691;-81
2021/09/02 00:48:37;;;;;;;19.25;11.75;;;;;;;12.34;85.41;97741.39;1849756;76;27516;-82
2021/09/02 00:51:04;;;;;;;20.27;13.20;;;;;;;12.30;85.37;97741.53;1835085;77;25715;-82
2021/09/02 00:53:34;;;;;;;20.30;12.43;;;;;;;12.29;85.45;97743.92;1849857;77;25726;-82
2021/09/02 00:56:00;;;;;;;21.68;14.03;;;;;;;12.28;85.46;97738.72;1809483;76;25774;-81
2021/09/02 00:58:27;;;;;;;20.57;13.25;;;;;;;12.30;85.55;97740.70;1840186;77;25663;-83
2021/09/02 01:00:54;;;;;;;17.98;13.65;;;;;;;12.33;85.58;97739.73;1842961;77;27550;-82
2021/09/02 01:03:21;;;;;;;20.60;14.15;;;;;;;12.33;85.58;97742.43;1823662;77;25788;-82
2021/09/02 01:05:54;;;;;;;21.35;12.82;;;;;;;12.34;85.63;97745.45;1843982;76;25810;-81
2021/09/02 01:08:21;;;;;;;20.80;14.68;;;;;;;12.36;85.61;97743.37;1843619;76;25676;-80
2021/09/02 01:10:50;;;;;;;23.80;14.65;;;;;;;12.32;85.51;97744.83;1824721;77;25686;-81
2021/09/02 01:13:19;;;;;;;21.50;14.68;;;;;;;12.24;85.51;97743.72;1830144;77;27459;-81
2021/09/02 01:15:46;;;;;;;21.07;15.10;;;;;;;12.22;85.69;97747.16;1843527;77;25712;-81
2021/09/02 01:18:13;;;;;;;20.60;13.80;;;;;;;12.27;85.86;97746.02;1843648;77;25833;-81
2021/09/02 01:20:40;;;;;;;22.42;14.50;;;;;;;12.33;85.86;97754.61;1843700;76;26338;-81
2021/09/02 01:23:08;;;;;;;21.60;14.20;;;;;;;12.32;85.81;97752.95;1816762;77;25704;-80
2021/09/02 01:25:42;;;;;;;25.08;14.95;;;;;;;12.29;85.84;97753.92;1809494;77;28357;-81
2021/09/02 01:28:11;;;;;;;22.77;14.58;;;;;;;12.33;85.96;97749.20;1763263;79;25840;-81
2021/09/02 01:30:42;;;;;;;20.48;13.90;;;;;;;12.35;85.96;97755.23;1799943;79;25801;-81
2021/09/02 01:33:10;;;;;;;20.68;14.78;;;;;;;12.38;85.93;97750.75;1800228;79;25784;-81
2021/09/02 01:35:37;;;;;;;19.60;14.45;;;;;;;12.32;85.81;97750.80;1800925;79;25774;-82
2021/09/02 01:38:07;;;;;;;22.17;14.98;;;;;;;12.26;85.89;97750.59;1806335;78;27347;-82
2021/09/02 01:40:40;;;;;;;22.15;14.80;;;;;;;12.29;85.96;97747.16;1800248;78;26017;-81
2021/09/02 01:43:09;;;;;;;22.62;14.95;;;;;;;12.25;85.87;97741.33;1786450;79;25741;-83
2021/09/02 01:45:36;;;;;;;26.95;16.57;;;;;;;12.22;85.93;97743.93;1795521;79;26075;-83
2021/09/02 01:48:04;;;;;;;25.90;15.85;;;;;;;12.18;85.92;97744.59;1794634;78;25767;-83
2021/09/02 01:50:35;;;;;;;22.37;15.15;;;;;;;12.19;86.01;97738.14;1794609;79;27340;-82
2021/09/02 01:53:07;;;;;;;22.67;14.87;;;;;;;12.21;86.02;97740.08;1801051;79;25270;-82
2021/09/02 01:55:35;;;;;;;29.18;15.63;;;;;;;12.26;86.04;97747.05;1790568;78;25834;-83
2021/09/02 01:58:02;;;;;;;24.25;14.98;;;;;;;12.21;85.90;97738.73;1800550;79;26174;-83
2021/09/02 02:00:29;;;;;;;23.65;14.87;;;;;;;12.20;85.90;97728.95;1830987;77;25751;-83
2021/09/02 02:02:55;;;;;;;23.65;14.47;;;;;;;12.17;85.86;97737.52;1807503;77;28242;-82
2021/09/02 02:05:23;;;;;;;21.27;14.95;;;;;;;12.15;85.85;97735.53;1836292;77;25692;-82
2021/09/02 02:07:50;;;;;;;24.82;14.98;;;;;;;12.11;85.88;97736.48;1840647;77;25857;-82
2021/09/02 02:10:26;;;;;;;22.90;14.63;;;;;;;12.13;85.97;97738.45;1840888;77;25825;-83
2021/09/02 02:12:51;;;;;;;21.10;14.93;;;;;;;12.13;86.00;97738.98;1840342;77;26360;-82
2021/09/02 02:15:17;;;;;;;21.93;13.88;;;;;;;12.12;86.02;97738.66;1817629;77;27510;-82
2021/09/02 02:17:44;;;;;;;21.23;14.63;;;;;;;12.14;86.07;97739.28;1827686;77;25689;-82
2021/09/02 02:20:12;;;;;;;22.65;14.68;;;;;;;12.14;86.14;97736.06;1804933;77;25768;-82
2021/09/02 02:22:39;;;;;;;26.80;15.98;;;;;;;12.14;86.16;97737.93;1841029;77;25814;-82
2021/09/02 02:25:08;;;;;;;20.92;15.00;;;;;;;12.19;86.22;97738.14;1841052;77;25718;-82
2021/09/02 02:27:35;;;;;;;20.77;14.20;;;;;;;12.16;86.14;97734.50;1841008;77;27441;-82
2021/09/02 02:30:03;;;;;;;21.68;14.53;;;;;;;12.15;86.20;97734.19;1840818;77;25764;-82
2021/09/02 02:32:30;;;;;;;21.57;14.70;;;;;;;12.16;86.25;97736.68;1840997;77;25708;-82
2021/09/02 02:34:56;;;;;;;24.85;14.68;;;;;;;12.19;86.27;97724.61;1841185;77;26221;-82
2021/09/02 02:37:23;;;;;;;23.15;14.85;;;;;;;12.21;86.24;97717.08;1841128;77;26252;-82
2021/09/02 02:39:49;;;;;;;24.60;14.50;;;;;;;12.15;86.15;97724.72;1840901;77;28152;-82
2021/09/02 02:42:16;;;;;;;24.37;15.32;;;;;;;12.14;86.22;97717.64;1831681;77;25801;-82
2021/09/02 02:44:43;;;;;;;27.20;15.18;;;;;;;12.19;86.38;97719.19;1828362;77;25676;-83
2021/09/02 02:47:10;;;;;;;23.62;14.55;;;;;;;12.23;86.41;97721.77;1846342;77;25891;-83
2021/09/02 02:49:38;;;;;;;25.80;14.65;;;;;;;12.21;86.29;97717.08;1841028;77;25768;-82
2021/09/02 02:52:07;;;;;;;24.35;15.70;;;;;;;12.22;86.32;97718.74;1829576;77;28202;-83
2021/09/02 02:54:33;;;;;;;17.10;13.70;;;;;;;12.25;86.33;97719.16;1831998;77;26289;-82
2021/09/02 02:57:00;;;;;;;21.15;13.58;;;;;;;12.28;86.36;97720.61;1817545;77;25826;-81
2021/09/02 02:59:27;;;;;;;18.50;13.18;;;;;;;12.28;86.35;97719.25;1775614;78;25680;-83
2021/09/02 03:01:53;;;;;;;20.92;14.70;;;;;;;12.29;86.32;97719.56;1830588;78;25732;-82
2021/09/02 03:04:20;;;;;;;21.55;14.68;;;;;;;12.30;86.32;97726.64;1810794;78;27496;-82
2021/09/02 03:06:46;;;;;;;23.73;13.88;;;;;;;12.32;86.29;97726.44;1829537;76;25743;-81
2021/09/02 03:09:13;;;;;;;25.60;14.43;;;;;;;12.33;86.32;97722.66;1828832;78;25822;-82
2021/09/02 03:11:40;;;;;;;20.57;14.68;;;;;;;12.34;86.34;97727.86;1830243;76;26470;-82
2021/09/02 03:14:06;;;;;;;17.62;13.45;;;;;;;12.37;86.35;97726.60;1830513;76;25652;-82
2021/09/02 03:16:33;;;;;;;20.77;14.38;;;;;;;12.32;86.29;97724.53;1830461;76;27438;-82
2021/09/02 03:19:00;;;;;;;25.62;15.53;;;;;;;12.27;86.27;97721.66;1829736;78;25729;-82
2021/09/02 03:21:26;;;;;;;20.60;14.40;;;;;;;12.29;86.40;97721.44;1820119;78;25745;-82
2021/09/02 03:23:53;;;;;;;20.23;13.38;;;;;;;12.30;86.37;97724.45;1829922;78;25675;-81
2021/09/02 03:26:19;;;;;;;19.20;14.30;;;;;;;12.28;86.36;97730.08;1828897;76;25692;-81
2021/09/02 03:28:46;;;;;;;18.17;13.48;;;;;;;12.24;86.34;97728.31;1828845;76;27571;-81
2021/09/02 03:31:13;;;;;;;19.23;13.20;;;;;;;12.28;86.43;97728.73;1829483;78;25973;-82
2021/09/02 03:33:40;;;;;;;26.42;13.65;;;;;;;12.30;86.45;97729.34;1809861;78;25838;-81
2021/09/02 03:36:06;;;;;;;18.80;13.72;;;;;;;12.34;86.45;97735.14;1829670;76;25817;-82
2021/09/02 03:38:33;;;;;;;19.67;13.75;;;;;;;12.30;86.32;97734.77;1829543;78;25679;-82
2021/09/02 03:41:00;;;;;;;21.68;13.40;;;;;;;12.26;86.32;97739.77;1830416;76;27313;-82
2021/09/02 03:43:26;;;;;;;17.40;13.38;;;;;;;12.27;86.37;97731.13;1830500;78;25829;-82
2021/09/02 03:45:53;;;;;;;20.65;14.33;;;;;;;12.26;86.42;97734.88;1830428;76;26426;-81
2021/09/02 03:48:19;;;;;;;20.05;14.10;;;;;;;12.28;86.49;97731.44;1829724;78;26243;-81
2021/09/02 03:50:46;;;;;;;23.22;14.30;;;;;;;12.33;86.49;97732.13;1828611;78;25766;-82
2021/09/02 03:53:12;;;;;;;22.17;14.50;;;;;;;12.34;86.50;97737.33;1830502;78;27619;-82
2021/09/02 03:55:39;;;;;;;20.57;13.68;;;;;;;12.36;86.50;97737.12;1829269;78;25738;-82
2021/09/02 03:58:07;;;;;;;24.40;14.75;;;;;;;12.34;86.44;97741.39;1839077;77;25871;-82
2021/09/02 04:00:35;;;;;;;20.62;14.70;;;;;;;12.35;86.49;97749.82;1844315;77;26408;-82
2021/09/02 04:03:02;;;;;;;22.70;14.53;;;;;;;12.37;86.50;97746.38;1844339;77;25877;-80
2021/09/02 04:05:29;;;;;;;20.35;15.10;;;;;;;12.39;86.49;97749.71;1843659;77;27521;-82
2021/09/02 04:07:55;;;;;;;24.77;15.43;;;;;;;12.40;86.51;97754.08;1843518;77;25699;-82
2021/09/02 04:10:22;;;;;;;22.87;13.75;;;;;;;12.41;86.52;97753.05;1844250;77;25683;-82
2021/09/02 04:12:48;;;;;;;25.10;14.40;;;;;;;12.41;86.49;97746.80;1844385;77;25823;-82
2021/09/02 04:15:15;;;;;;;18.62;13.80;;;;;;;12.40;86.47;97748.67;1827038;77;25717;-83
2021/09/02 04:17:42;;;;;;;20.35;14.47;;;;;;;12.38;86.45;97750.75;1844134;77;27279;-81
2021/09/02 04:20:09;;;;;;;22.67;14.38;;;;;;;12.39;86.52;97752.42;1844157;77;25733;-82
2021/09/02 04:22:36;;;;;;;17.40;14.20;;;;;;;12.39;86.55;97751.59;1844244;77;26311;-81
2021/09/02 04:25:03;;;;;;;19.25;13.45;;;;;;;12.41;86.60;97758.45;1825787;77;25718;-82
2021/09/02 04:27:30;;;;;;;18.75;14.73;;;;;;;12.39;86.57;97759.70;1841611;77;25792;-82
2021/09/02 04:29:56;;;;;;;22.93;14.63;;;;;;;12.41;86.59;97761.16;1842994;77;27492;-83
2021/09/02 04:32:23;;;;;;;20.55;13.98;;;;;;;12.42;86.62;97766.89;1814128;77;25992;-82
2021/09/02 04:34:49;;;;;;;22.37;14.20;;;;;;;12.45;86.58;97762.89;1844202;77;25711;-82
2021/09/02 04:37:16;;;;;;;22.65;13.60;;;;;;;12.48;86.54;97767.37;1844077;77;26427;-82
2021/09/02 04:39:43;;;;;;;19.32;13.10;;;;;;;12.52;86.53;97768.61;1838221;76;25277;-82
2021/09/02 04:42:10;;;;;;;20.35;12.98;;;;;;;12.57;86.49;97768.78;1813162;77;27183;-82
2021/09/02 04:44:36;;;;;;;18.98;13.20;;;;;;;12.60;86.38;97766.17;1842802;77;25701;-81
2021/09/02 04:47:03;;;;;;;15.83;12.70;;;;;;;12.59;86.21;97769.41;1844218;77;25233;-81
2021/09/02 04:49:30;;;;;;;16.87;12.23;;;;;;;12.59;86.30;97769.41;1844131;77;26237;-81
2021/09/02 04:51:57;;;;;;;20.25;13.08;;;;;;;12.59;86.32;97763.98;1841607;77;26081;-80
2021/09/02 04:54:23;;;;;;;16.60;12.45;;;;;;;12.58;86.30;97775.86;1839783;77;27405;-81
2021/09/02 04:56:50;;;;;;;16.77;12.90;;;;;;;12.60;86.22;97774.30;1814860;77;25724;-79
2021/09/02 04:59:16;;;;;;;18.15;13.72;;;;;;;12.58;86.17;97779.92;1837305;77;25682;-80
2021/09/02 05:01:43;;;;;;;17.10;13.65;;;;;;;12.57;86.22;97774.20;1840642;77;25756;-81
2021/09/02 05:04:09;;;;;;;21.42;13.58;;;;;;;12.57;86.29;97779.61;1821786;77;25699;-81
2021/09/02 05:06:36;;;;;;;20.77;14.60;;;;;;;12.60;86.32;97785.96;1838085;77;27012;-81
2021/09/02 05:09:03;;;;;;;21.07;14.35;;;;;;;12.63;86.30;97792.31;1840757;77;25731;-83
2021/09/02 05:11:29;;;;;;;25.23;16.05;;;;;;;12.68;86.27;97793.00;1838057;77;25821;-83
2021/09/02 05:13:56;;;;;;;24.52;16.48;;;;;;;12.72;86.14;97792.89;1840933;77;26202;-81
2021/09/02 05:16:22;;;;;;;23.07;15.85;;;;;;;12.76;86.11;97794.66;1840859;77;25209;-81
2021/09/02 05:18:49;;;;;;;21.85;15.55;;;;;;;12.79;86.09;97798.30;1840682;77;27404;-83
2021/09/02 05:21:15;;;;;;;22.42;16.67;;;;;;;12.82;86.03;97793.77;1809837;77;25700;-82
2021/09/02 05:23:42;;;;;;;27.93;16.93;;;;;;;12.83;85.98;97788.14;1815970;77;25653;-83
2021/09/02 05:26:09;;;;;;;21.93;15.78;;;;;;;12.86;85.92;97792.30;1816084;77;25736;-82
2021/09/02 05:28:35;;;;;;;24.47;16.62;;;;;;;12.89;85.84;97794.06;1839912;77;25787;-83
2021/09/02 05:31:02;;;;;;;25.45;16.95;;;;;;;12.91;85.79;97794.69;1835820;77;28153;-82
2021/09/02 05:33:28;;;;;;;24.05;17.90;;;;;;;12.93;85.73;97789.02;1839884;77;25711;-82
2021/09/02 05:35:55;;;;;;;23.90;16.67;;;;;;;12.94;85.71;97782.03;1831738;77;26335;-82
2021/09/02 05:38:22;;;;;;;22.37;16.97;;;;;;;12.98;85.69;97785.15;1816578;77;26085;-83
2021/09/02 05:40:48;;;;;;;26.12;17.32;;;;;;;13.02;85.72;97789.63;1835808;77;25669;-82
2021/09/02 05:43:15;;;;;;;27.98;18.65;;;;;;;13.05;85.65;97798.13;1813147;77;27492;-82
2021/09/02 05:45:41;;;;;;;27.70;18.23;;;;;;;13.07;85.60;97806.87;1840793;77;25725;-82
2021/09/02 05:48:08;;;;;;;25.77;17.52;;;;;;;13.08;85.56;97804.47;1838193;77;25757;-82
2021/09/02 05:50:35;;;;;;;24.07;18.05;;;;;;;13.10;85.56;97806.45;1838019;77;26396;-83
2021/09/02 05:53:01;;;;;;;25.90;17.25;;;;;;;13.15;85.57;97804.48;1829940;77;25818;-82
2021/09/02 05:55:28;;;;;;;22.42;17.57;;;;;;;13.22;85.51;97812.87;1819137;77;27520;-82
2021/09/02 05:57:54;;;;;;;21.60;17.40;;;;;;;13.25;85.58;97808.89;1838904;77;26275;-82
2021/09/02 06:00:21;;;;;;;24.00;17.00;;;;;;;13.29;85.57;97807.39;1840695;77;26320;-83
2021/09/02 06:02:48;;;;;;;20.75;17.05;;;;;;;13.35;85.43;97811.95;1815283;77;26296;-82
2021/09/02 06:05:14;;;;;;;23.22;17.20;;;;;;;13.39;85.26;97813.71;1839805;77;25794;-84
2021/09/02 06:07:41;;;;;;;21.40;17.70;;;;;;;13.46;85.24;97815.84;1809416;77;27435;-82
2021/09/02 06:10:09;;;;;;;21.27;17.73;;;;;;;13.53;85.20;97819.31;1839703;77;25775;-83
2021/09/02 06:12:36;;;;;;;27.90;18.77;;;;;;;13.56;85.05;97821.59;1840867;77;25800;-84
2021/09/02 06:15:07;;;;;;;23.30;17.80;;;;;;;13.59;84.96;97820.64;1840561;77;25624;-84
2021/09/02 06:17:33;;;;;;;24.27;18.05;;;;;;;13.65;84.91;97820.27;1840924;77;25709;-85
2021/09/02 06:20:00;;;;;;;23.52;18.45;;;;;;;13.72;84.80;97829.20;1807624;77;26939;-82
2021/09/02 06:22:26;;;;;;;22.95;17.57;;;;;;;13.72;84.70;97827.84;1825557;77;25233;-82
2021/09/02 06:24:54;;;;;;;27.67;16.97;;;;;;;13.72;84.76;97826.48;1832721;77;25640;-86
2021/09/02 06:27:20;;;;;;;20.48;16.25;;;;;;;13.73;84.54;97828.16;1844429;77;25692;-83
2021/09/02 06:29:47;;;;;;;24.60;16.62;;;;;;;13.76;84.40;97833.67;1840327;77;25746;-83
2021/09/02 06:32:13;;;;;;;26.45;16.52;;;;;;;13.77;84.29;97837.49;1818688;77;28329;-82
2021/09/02 06:34:40;;;;;;;20.52;16.32;;;;;;;13.80;84.15;97840.30;1840853;77;25695;-85
2021/09/02 06:37:06;;;;;;;19.00;15.40;;;;;;;13.78;84.07;97833.73;1839275;77;25690;-82
2021/09/02 06:39:33;;;;;;;20.40;16.62;;;;;;;13.80;84.00;97828.09;1807061;77;26390;-83
2021/09/02 06:41:59;;;;;;;21.10;16.42;;;;;;;13.80;83.95;97835.70;1840069;77;25673;-83
2021/09/02 06:44:26;;;;;;;19.23;16.25;;;;;;;13.84;83.89;97846.43;1840411;77;27462;-85
2021/09/02 06:46:53;;;;;;;22.27;16.05;;;;;;;13.85;83.77;97845.38;1839719;77;25699;-85
2021/09/02 06:49:20;;;;;;;20.72;14.95;;;;;;;13.87;83.61;97852.78;1840804;77;25782;-82
2021/09/02 06:51:48;;;;;;;25.17;15.75;;;;;;;13.88;83.50;97846.83;1820620;77;26212;-82
2021/09/02 06:54:15;;;;;;;19.90;15.25;;;;;;;13.91;83.54;97853.98;1828626;77;25762;-82
2021/09/02 06:56:41;;;;;;;17.50;13.65;;;;;;;13.94;83.51;97857.61;1838958;77;28041;-86
2021/09/02 06:59:08;;;;;;;20.32;14.30;;;;;;;14.01;83.50;97862.97;1840157;77;25752;-83
2021/09/02 07:01:34;;;;;;;16.32;13.83;;;;;;;14.09;83.34;97864.06;1828114;77;25700;-82
2021/09/02 07:04:01;;;;;;;17.15;13.25;;;;;;;14.14;83.23;97865.56;1835096;77;25676;-81
2021/09/02 07:06:28;;;;;;;21.33;13.95;;;;;;;14.19;83.03;97862.20;1841208;77;25731;-82
2021/09/02 07:08:54;;;;;;;18.55;13.48;;;;;;;14.21;82.99;97870.43;1818884;77;28422;-86
2021/09/02 07:11:21;;;;;;;19.77;13.13;;;;;;;14.24;82.83;97871.34;1830423;77;25699;-82
2021/09/02 07:13:48;;;;;;;16.10;13.22;;;;;;;14.24;82.79;97871.34;1840988;77;25719;-82
2021/09/02 07:16:14;;;;;;;16.17;12.05;;;;;;;14.25;82.80;97874.90;1840984;76;25675;-88
2021/09/02 07:18:43;;;;;;;14.90;10.70;;;;;;;14.30;82.63;97876.40;1840796;77;26343;-81
2021/09/02 07:21:09;;;;;;;14.53;10.85;;;;;;;14.37;82.37;97874.44;1840992;77;27552;-82
2021/09/02 07:23:36;;;;;;;15.65;10.85;;;;;;;14.41;82.29;97867.55;1840905;77;25695;-83
2021/09/02 07:26:03;;;;;;;12.58;10.55;;;;;;;14.51;82.28;97869.73;1841140;77;25789;-81
2021/09/02 07:28:29;;;;;;;16.20;10.93;;;;;;;14.64;82.07;97875.86;1841010;77;25663;-82
2021/09/02 07:30:56;;;;;;;17.95;11.15;;;;;;;14.75;81.82;97875.11;1840270;77;26415;-81
2021/09/02 07:33:22;;;;;;;12.65;9.70;;;;;;;14.88;81.74;97871.94;1840522;77;27501;-81
2021/09/02 07:35:49;;;;;;;14.47;9.73;;;;;;;14.95;81.57;97886.30;1840867;77;25671;-83
2021/09/02 07:38:16;;;;;;;14.33;9.98;;;;;;;14.92;81.28;97891.65;1841013;77;26371;-81
2021/09/02 07:40:42;;;;;;;13.58;8.58;;;;;;;14.99;81.06;97902.43;1840881;77;25802;-84
2021/09/02 07:43:09;;;;;;;11.33;8.55;;;;;;;15.00;81.06;97894.58;1841047;77;25766;-85
2021/09/02 07:45:35;;;;;;;12.28;7.72;;;;;;;14.98;80.65;97904.84;1841356;77;27508;-84
2021/09/02 07:48:02;;;;;;;8.93;7.58;;;;;;;14.91;80.58;97900.03;1840907;77;25985;-81
2021/09/02 07:50:29;;;;;;;12.68;7.00;;;;;;;14.92;80.45;97901.16;1840885;77;25861;-82
2021/09/02 07:52:55;;;;;;;9.55;6.97;;;;;;;14.99;80.56;97905.15;1840200;77;25678;-81
2021/09/02 07:55:22;;;;;;;11.33;7.80;;;;;;;14.96;80.30;97903.73;1817465;77;25677;-83
2021/09/02 07:57:48;;;;;;;8.33;7.25;;;;;;;15.03;80.46;97899.57;1812249;77;28190;-81
2021/09/02 08:00:18;;;;;;;10.43;7.00;;;;;;;15.10;80.24;97897.59;1802052;77;25689;-82
2021/09/02 08:02:46;;;;;;;10.68;7.15;;;;;;;15.19;80.07;97900.32;1828323;77;25729;-82
2021/09/02 08:05:13;;;;;;;7.78;6.60;;;;;;;15.27;79.67;97905.96;1840710;77;25770;-84
2021/09/02 08:07:55;;;;;;;10.68;6.42;;;;;;;15.25;79.58;97895.31;1826338;77;25738;-83
2021/09/02 08:10:24;;;;;;;10.18;7.65;;;;;;;15.23;79.21;97895.23;1812321;77;27436;-81
2021/09/02 08:12:53;;;;;;;7.67;6.87;;;;;;;15.28;79.12;97890.78;1830804;77;25728;-82
2021/09/02 08:15:21;;;;;;;13.30;7.75;;;;;;;15.36;79.10;97888.26;1840945;77;25778;-83
2021/09/02 08:17:48;;;;;;;10.55;8.13;;;;;;;15.37;78.95;97890.75;1839503;77;25698;-81
2021/09/02 08:20:16;;;;;;;9.45;6.80;;;;;;;15.42;78.81;97899.06;1764178;80;25740;-82
2021/09/02 08:22:43;;;;;;;10.28;7.75;;;;;;;15.44;78.81;97895.59;1801593;78;27544;-84
2021/09/02 08:25:12;;;;;;;13.08;7.60;;;;;;;15.42;78.63;97904.51;1801543;79;25783;-81
2021/09/02 08:27:41;;;;;;;10.30;7.37;;;;;;;15.38;78.53;97906.55;1801714;79;25737;-81
2021/09/02 08:30:09;;;;;;;9.45;5.90;;;;;;;15.45;78.45;97906.77;1801665;78;25616;-86
2021/09/02 08:32:36;;;;;;;10.00;7.10;;;;;;;15.52;78.47;97903.95;1794057;79;25668;-82
2021/09/02 08:35:03;;;;;;;9.40;6.72;;;;;;;15.63;78.14;97909.16;1801589;79;27536;-82
2021/09/02 08:37:30;;;;;;;9.25;6.85;;;;;;;15.68;77.65;97910.67;1801401;79;25703;-86
2021/09/02 08:39:57;;;;;;;9.25;6.58;;;;;;;15.78;77.38;97916.38;1801708;79;25931;-82
2021/09/02 08:42:24;;;;;;;12.05;7.12;;;;;;;15.79;76.88;97907.98;1801604;79;26422;-81
2021/09/02 08:44:50;;;;;;;8.80;6.78;;;;;;;15.72;76.80;97913.21;1801664;79;25773;-82
2021/09/02 08:47:20;;;;;;;8.53;7.03;;;;;;;15.73;77.16;97910.79;1801545;79;28303;-83
2021/09/02 08:49:48;;;;;;;8.43;6.62;;;;;;;15.81;76.86;97903.67;1801292;79;25752;-83
2021/09/02 08:52:16;;;;;;;8.75;7.28;;;;;;;15.91;76.77;97901.21;1801731;79;25811;-82
2021/09/02 08:54:43;;;;;;;10.53;6.83;;;;;;;15.92;76.31;97903.41;1774139;78;26421;-87
2021/09/02 08:57:10;;;;;;;10.15;6.45;;;;;;;15.87;76.31;97905.45;1801611;79;25409;-83
2021/09/02 08:59:36;;;;;;;10.48;6.50;;;;;;;15.87;75.87;97910.89;1813694;78;27404;-86
2021/09/02 09:02:27;;;;;;;8.63;6.37;;;;;;;15.90;75.73;97912.33;1819560;78;25750;-82
2021/09/02 09:05:10;;;;;;;7.22;6.40;;;;;;;15.94;75.57;97911.61;1812619;78;26047;-81
2021/09/02 09:07:41;;;;;;;8.20;6.28;;;;;;;15.98;75.56;97911.98;1814295;78;25693;-82
2021/09/02 09:10:12;;;;;;;9.15;5.85;;;;;;;16.09;75.27;97924.27;1824689;78;25705;-84
2021/09/02 09:12:42;;;;;;;8.70;6.95;;;;;;;16.21;75.04;97927.84;1823108;78;28598;-81
2021/09/02 09:15:20;;;;;;;7.47;6.67;;;;;;;16.28;74.91;97916.84;1835787;78;25841;-83
2021/09/02 09:17:50;;;;;;;8.53;6.85;;;;;;;16.39;75.04;97923.38;1834886;78;26236;-82
2021/09/02 09:20:20;;;;;;;11.38;6.87;;;;;;;16.39;74.13;97922.01;1834533;78;26173;-82
2021/09/02 09:23:01;;;;;;;11.15;7.15;;;;;;;16.29;74.15;97933.49;1816576;78;25704;-83
2021/09/02 09:25:28;;;;;;;7.83;6.60;;;;;;;16.25;74.34;97935.02;1808470;78;27337;-85
2021/09/02 09:27:59;;;;;;;9.50;7.47;;;;;;;16.29;74.63;97928.58;1815593;78;25717;-82
2021/09/02 09:30:30;;;;;;;10.80;7.30;;;;;;;16.38;74.12;97928.52;1826160;78;25700;-83
2021/09/02 09:33:06;;;;;;;10.85;7.95;;;;;;;16.49;73.74;97922.25;1819949;78;26357;-84
2021/09/02 09:35:39;;;;;;;9.28;7.75;;;;;;;16.63;73.69;97922.88;1834524;78;25754;-83
2021/09/02 09:38:11;;;;;;;8.43;7.30;;;;;;;16.78;73.42;97925.42;1815899;78;27456;-83
2021/09/02 09:40:43;;;;;;;11.90;7.45;;;;;;;16.90;73.36;97926.21;1812751;78;25914;-83
2021/09/02 09:43:24;;;;;;;8.73;7.28;;;;;;;16.96;73.07;97924.97;1835349;78;35868;-82
2021/09/02 09:45:56;;;;;;;9.10;7.92;;;;;;;17.05;72.96;97921.63;1835583;78;25760;-82
2021/09/02 09:48:28;;;;;;;10.25;8.88;;;;;;;17.17;72.80;97916.15;1833743;78;25795;-82
2021/09/02 09:51:19;;;;;;;10.60;9.13;;;;;;;17.28;72.67;97924.83;1833004;78;28280;-81
2021/09/02 09:53:50;;;;;;;14.80;9.15;;;;;;;17.31;72.79;97925.72;1820352;78;25823;-81
2021/09/02 09:56:23;;;;;;;9.05;8.15;;;;;;;17.40;72.35;97932.45;1835351;77;25776;-82
2021/09/02 09:58:53;;;;;;;9.70;8.05;;;;;;;17.44;72.24;97929.55;1818667;78;25815;-82
2021/09/02 10:01:20;;;;;;;11.35;7.78;;;;;;;17.42;71.90;97927.59;1831276;78;25746;-83
2021/09/02 10:03:51;;;;;;;9.10;6.47;;;;;;;17.41;71.70;97937.38;1834761;78;27593;-82
2021/09/02 10:06:18;;;;;;;10.53;7.50;;;;;;;17.41;71.16;97930.02;1788679;80;26528;-87
2021/09/02 10:08:46;;;;;;;8.30;7.25;;;;;;;17.34;71.28;97937.53;1835810;78;25226;-82
2021/09/02 10:11:15;;;;;;;11.12;7.00;;;;;;;17.37;70.88;97936.22;1835898;77;27157;-83
2021/09/02 10:13:44;;;;;;;10.53;7.58;;;;;;;17.45;70.61;97935.83;1835922;77;25664;-83
2021/09/02 10:16:11;;;;;;;10.32;6.70;;;;;;;17.44;70.81;97932.27;1835954;78;27390;-80
2021/09/02 10:18:44;;;;;;;9.18;7.03;;;;;;;17.40;70.35;97926.99;1826745;78;25760;-85
2021/09/02 10:21:12;;;;;;;9.23;7.15;;;;;;;17.44;69.96;97928.17;1823670;78;25753;-81
2021/09/02 10:23:39;;;;;;;8.65;7.00;;;;;;;17.53;69.87;97931.34;1810087;78;25789;-82
2021/09/02 10:26:06;;;;;;;11.15;6.67;;;;;;;17.61;69.65;97935.90;1835979;78;26562;-82
2021/09/02 10:28:35;;;;;;;9.53;7.17;;;;;;;17.62;69.24;97929.38;1835885;78;28233;-84
2021/09/02 10:31:21;;;;;;;6.12;5.33;;;;;;;17.55;69.60;97939.59;1834976;77;25751;-84
2021/09/02 10:33:48;;;;;;;9.60;4.97;;;;;;;17.59;68.83;97938.04;1806052;78;26353;-82
2021/09/02 10:36:20;;;;;;;7.70;4.95;;;;;;;17.70;68.53;97930.91;1835817;78;26411;-81
2021/09/02 10:38:54;;;;;;;7.65;5.25;;;;;;;17.80;68.65;97935.72;1814072;77;25231;-82
2021/09/02 10:41:44;;;;;;;7.10;5.30;;;;;;;17.91;68.26;97928.00;1800812;78;27328;-82
2021/09/02 10:44:15;;;;;;;6.45;5.78;;;;;;;17.96;67.94;97933.04;1835657;77;26440;-82
2021/09/02 10:46:45;;;;;;;8.10;5.62;;;;;;;17.94;68.11;97938.45;1834610;78;26379;-81
2021/09/02 10:49:35;;;;;;;6.42;5.45;;;;;;;18.02;68.22;97939.41;1812950;77;25915;-82
2021/09/02 10:52:05;;;;;;;6.35;5.20;;;;;;;18.19;68.18;97934.80;1836092;78;25732;-83
2021/09/02 10:54:37;;;;;;;6.85;4.50;;;;;;;18.51;68.07;97945.16;1832211;78;27389;-82
2021/09/02 10:57:13;;;;;;;8.15;4.83;;;;;;;18.81;68.15;97931.17;1836034;78;31512;-83
2021/09/02 10:59:51;;;;;;;5.30;4.80;;;;;;;18.89;67.13;97931.55;1839502;77;25625;-82
2021/09/02 11:02:26;;;;;;;6.95;5.05;;;;;;;18.76;66.40;97929.17;1844310;77;26256;-81
2021/09/02 11:05:06;;;;;;;7.37;5.83;;;;;;;18.64;66.51;97930.64;1844369;76;26129;-82
2021/09/02 11:07:44;;;;;;;5.75;5.12;;;;;;;18.57;66.42;97935.97;1844311;77;27430;-81
2021/09/02 11:10:21;;;;;;;6.05;5.35;;;;;;;18.63;66.05;97937.72;1844129;77;25726;-81
2021/09/02 11:13:01;;;;;;;8.95;4.67;;;;;;;18.61;66.28;97942.61;1843952;77;25750;-82
2021/09/02 11:15:28;;;;;;;4.95;4.00;;;;;;;18.60;65.80;97938.21;1827130;77;25683;-82
2021/09/02 11:18:01;;;;;;;4.60;4.20;;;;;;;18.43;65.67;97942.84;1829160;77;25716;-83
2021/09/02 11:20:31;;;;;;;5.78;4.00;;;;;;;18.23;65.27;97937.88;1844063;77;29317;-82
2021/09/02 11:23:19;;;;;;;5.72;4.25;;;;;;;18.19;65.27;97938.90;1813322;77;25724;-82
2021/09/02 11:25:52;;;;;;;6.50;4.05;;;;;;;18.30;65.36;97939.36;1812524;77;25675;-81
2021/09/02 11:28:22;;;;;;;4.97;4.22;;;;;;;18.42;65.66;97941.19;1798758;77;26298;-82